createdAt,value
2022-11-03T00:01:34.227Z,85.49
2022-11-03T00:04:02.237Z,85.64
2022-11-03T00:06:29.878Z,85.81
2022-11-03T00:09:01.757Z,85.71
2022-11-03T00:11:30.202Z,85.83
2022-11-03T00:13:57.869Z,85.92
2022-11-03T00:16:25.820Z,86.31
2022-11-03T00:18:54.153Z,86.14
2022-11-03T00:21:22.470Z,86.27
2022-11-03T00:23:50.852Z,86.05
2022-11-03T00:26:21.778Z,85.92
2022-11-03T00:28:51.446Z,86.36
2022-11-03T00:31:21.205Z,85.94
2022-11-03T00:33:49.910Z,86.26
2022-11-03T00:36:20.169Z,85.91
2022-11-03T00:38:48.828Z,85.84
2022-11-03T00:41:17.474Z,86.11
2022-11-03T00:43:46.702Z,85.99
2022-11-03T00:46:14.781Z,85.92
2022-11-03T00:48:43.375Z,85.89
2022-11-03T00:51:12.526Z,85.91
2022-11-03T00:53:42.407Z,86.06
2022-11-03T00:56:14.054Z,86.16
2022-11-03T00:58:43.493Z,86.34
2022-11-03T01:01:14.323Z,86.35
2022-11-03T01:04:05.032Z,86.05
2022-11-03T01:06:50.818Z,85.99
2022-11-03T01:09:19.228Z,86.14
2022-11-03T01:11:54.567Z,86.01
2022-11-03T01:14:22.675Z,86.25
2022-11-03T01:16:53.068Z,86.03
2022-11-03T01:19:22.336Z,86.16
2022-11-03T01:21:51.053Z,86.01
2022-11-03T01:24:19.143Z,85.91
2022-11-03T01:26:47.285Z,85.80
2022-11-03T01:29:15.255Z,85.69
2022-11-03T01:31:43.354Z,86.02
2022-11-03T01:34:15.828Z,85.92
2022-11-03T01:36:44.697Z,86.16
2022-11-03T01:39:12.860Z,86.36
2022-11-03T01:41:41.388Z,86.22
2022-11-03T01:44:36.771Z,86.49
2022-11-03T01:47:13.789Z,86.76
2022-11-03T01:49:47.921Z,87.16
2022-11-03T01:52:21.688Z,87.17
2022-11-03T01:54:54.697Z,87.07
2022-11-03T01:57:27.120Z,86.46
2022-11-03T01:59:58.288Z,86.46
2022-11-03T02:02:27.814Z,86.42
2022-11-03T02:05:00.906Z,86.34
2022-11-03T02:07:35.031Z,86.52
2022-11-03T02:10:02.938Z,86.54
2022-11-03T02:12:32.310Z,86.25
2022-11-03T02:15:03.989Z,86.10
2022-11-03T02:17:34.108Z,86.09
2022-11-03T02:20:07.202Z,85.97
2022-11-03T02:23:05.689Z,86.10
2022-11-03T02:25:43.269Z,86.36
2022-11-03T02:28:13.296Z,86.59
2022-11-03T02:30:45.550Z,86.21
2022-11-03T02:33:26.479Z,86.28
2022-11-03T02:35:59.660Z,86.40
2022-11-03T02:38:32.076Z,86.48
2022-11-03T02:41:04.444Z,86.29
2022-11-03T02:43:33.199Z,86.56
2022-11-03T02:46:02.407Z,86.56
2022-11-03T02:48:30.645Z,86.54
2022-11-03T02:50:58.321Z,86.70
2022-11-03T02:53:30.692Z,86.37
2022-11-03T02:56:05.887Z,86.56
2022-11-03T02:58:39.982Z,86.51
2022-11-03T03:01:15.544Z,86.74
2022-11-03T03:03:48.102Z,86.46
2022-11-03T03:06:23.600Z,86.39
2022-11-03T03:08:57.156Z,86.33
2022-11-03T03:11:38.949Z,86.36
2022-11-03T03:14:10.949Z,85.87
2022-11-03T03:16:45.045Z,86.22
2022-11-03T03:19:23.129Z,86.58
2022-11-03T03:21:54.551Z,86.38
2022-11-03T03:24:30.028Z,86.43
2022-11-03T03:27:02.372Z,86.25
2022-11-03T03:29:35.728Z,85.94
2022-11-03T03:32:09.976Z,85.22
2022-11-03T03:34:41.411Z,85.25
2022-11-03T03:37:14.349Z,85.33
2022-11-03T03:39:47.058Z,85.62
2022-11-03T03:42:17.880Z,86.16
2022-11-03T03:44:47.438Z,86.05
2022-11-03T03:47:20.845Z,86.26
2022-11-03T03:49:48.675Z,86.49
2022-11-03T03:52:17.595Z,86.13
2022-11-03T03:54:45.360Z,86.16
2022-11-03T03:57:18.067Z,86.21
2022-11-03T03:59:47.552Z,85.95
2022-11-03T04:02:16.403Z,85.62
2022-11-03T04:04:44.296Z,85.75
2022-11-03T04:07:30.491Z,85.63
2022-11-03T04:09:58.216Z,85.58
2022-11-03T04:12:45.895Z,85.59
2022-11-03T04:15:32.299Z,85.62
2022-11-03T04:18:17.776Z,85.71
2022-11-03T04:21:02.873Z,85.73
2022-11-03T04:23:31.418Z,85.62
2022-11-03T04:26:00.571Z,85.36
2022-11-03T04:28:30.771Z,85.58
2022-11-03T04:30:59.846Z,85.55
2022-11-03T04:33:27.912Z,85.55
2022-11-03T04:35:59.061Z,85.72
2022-11-03T04:38:28.764Z,85.59
2022-11-03T04:40:58.587Z,85.73
2022-11-03T04:43:35.288Z,85.58
2022-11-03T04:46:03.223Z,85.64
2022-11-03T04:48:31.081Z,85.86
2022-11-03T04:51:01.388Z,85.65
2022-11-03T04:53:33.060Z,85.73
2022-11-03T04:56:06.167Z,85.75
2022-11-03T04:58:37.507Z,85.51
2022-11-03T05:01:11.404Z,85.71
2022-11-03T05:03:41.795Z,85.71
2022-11-03T05:06:15.460Z,85.59
2022-11-03T05:08:45.249Z,85.86
2022-11-03T05:11:22.251Z,85.63
2022-11-03T05:13:52.544Z,85.57
2022-11-03T05:16:20.727Z,85.77
2022-11-03T05:18:50.630Z,85.83
2022-11-03T05:21:22.825Z,85.95
2022-11-03T05:23:53.731Z,85.44
2022-11-03T05:26:25.532Z,85.33
2022-11-03T05:28:59.739Z,84.92
2022-11-03T05:31:30.813Z,85.26
2022-11-03T05:34:01.198Z,85.39
2022-11-03T05:36:32.013Z,85.33
2022-11-03T05:39:15.601Z,85.42
2022-11-03T05:41:44.176Z,85.70
2022-11-03T05:44:28.332Z,85.91
2022-11-03T05:46:56.390Z,85.47
2022-11-03T05:49:24.096Z,85.88
2022-11-03T05:51:52.007Z,85.22
2022-11-03T05:54:23.270Z,84.79
2022-11-03T05:56:51.712Z,84.94
2022-11-03T05:59:23.938Z,84.73
2022-11-03T06:01:53.263Z,84.61
2022-11-03T06:04:25.760Z,84.50
2022-11-03T06:06:55.542Z,84.76
2022-11-03T06:09:27.909Z,84.99
2022-11-03T06:12:00.112Z,84.96
2022-11-03T06:14:31.672Z,85.14
2022-11-03T06:17:02.582Z,85.23
2022-11-03T06:19:33.833Z,85.14
2022-11-03T06:22:07.298Z,84.78
2022-11-03T06:24:35.652Z,84.83
2022-11-03T06:27:04.156Z,84.74
2022-11-03T06:29:34.724Z,85.07
2022-11-03T06:32:03.421Z,84.69
2022-11-03T06:34:44.230Z,84.98
2022-11-03T06:37:20.137Z,84.50
2022-11-03T06:39:48.838Z,84.54
2022-11-03T06:42:21.021Z,84.35
2022-11-03T06:44:52.059Z,84.67
2022-11-03T06:47:23.993Z,84.17
2022-11-03T06:49:53.975Z,84.50
2022-11-03T06:52:26.910Z,84.44
2022-11-03T06:55:12.257Z,84.54
2022-11-03T06:57:45.929Z,84.51
2022-11-03T07:00:34.049Z,84.24
2022-11-03T07:03:08.473Z,84.59
2022-11-03T07:05:37.272Z,84.82
2022-11-03T07:08:15.910Z,84.46
2022-11-03T07:10:43.789Z,84.90
2022-11-03T07:13:15.604Z,84.51
2022-11-03T07:15:45.915Z,83.97
2022-11-03T07:18:20.886Z,84.25
2022-11-03T07:20:48.900Z,83.94
2022-11-03T07:23:20.535Z,83.78
2022-11-03T07:25:53.248Z,83.73
2022-11-03T07:28:21.660Z,83.71
2022-11-03T07:30:50.773Z,83.95
2022-11-03T07:33:22.003Z,84.18
2022-11-03T07:36:14.372Z,83.92
2022-11-03T07:38:39.933Z,83.89
2022-11-03T07:41:13.777Z,84.14
2022-11-03T07:43:41.433Z,83.47
2022-11-03T07:46:15.855Z,83.58
2022-11-03T07:48:47.108Z,83.90
2022-11-03T07:51:21.741Z,83.14
2022-11-03T07:53:51.175Z,82.98
2022-11-03T07:56:21.813Z,82.16
2022-11-03T07:58:53.237Z,82.28
2022-11-03T08:01:28.025Z,82.19
2022-11-03T08:03:59.890Z,82.21
2022-11-03T08:06:28.536Z,81.99
2022-11-03T08:08:56.209Z,81.91
2022-11-03T08:11:27.896Z,81.69
2022-11-03T08:13:57.868Z,82.25
2022-11-03T08:16:26.892Z,81.95
2022-11-03T08:18:54.624Z,81.49
2022-11-03T08:21:22.327Z,81.84
2022-11-03T08:23:50.035Z,81.59
2022-11-03T08:26:18.362Z,81.33
2022-11-03T08:28:46.158Z,81.21
2022-11-03T08:31:14.167Z,81.66
2022-11-03T08:33:43.275Z,81.95
2022-11-03T08:36:11.384Z,82.17
2022-11-03T08:38:39.713Z,82.47
2022-11-03T08:41:07.504Z,81.47
2022-11-03T08:43:35.774Z,80.72
2022-11-03T08:46:08.371Z,79.25
2022-11-03T08:48:45.063Z,79.92
2022-11-03T08:51:14.396Z,79.42
2022-11-03T08:53:43.459Z,78.39
2022-11-03T08:56:13.497Z,79.09
2022-11-03T08:58:43.717Z,78.59
2022-11-03T09:01:11.440Z,77.26
2022-11-03T09:03:39.364Z,76.34
2022-11-03T09:06:09.811Z,76.59
2022-11-03T09:11:25.322Z,75.10
2022-11-03T09:13:53.008Z,75.02
2022-11-03T09:16:21.544Z,75.71
2022-11-03T09:18:49.232Z,74.05
2022-11-03T09:21:18.430Z,72.48
2022-11-03T09:23:46.471Z,71.75
2022-11-03T09:26:14.245Z,68.24
2022-11-03T09:28:41.931Z,67.76
2022-11-03T09:31:09.646Z,65.95
2022-11-03T09:33:37.371Z,66.01
2022-11-03T09:36:05.649Z,66.56
2022-11-03T09:38:35.434Z,66.39
2022-11-03T09:41:09.708Z,66.84
2022-11-03T09:43:48.720Z,65.79
2022-11-03T09:46:17.958Z,65.23
2022-11-03T09:48:45.840Z,65.73
2022-11-03T09:51:19.823Z,65.03
2022-11-03T09:53:49.762Z,65.59
2022-11-03T09:56:20.730Z,65.16
2022-11-03T09:58:53.038Z,62.94
2022-11-03T10:01:23.044Z,61.42
2022-11-03T10:03:50.909Z,61.09
2022-11-03T10:06:19.681Z,59.49
2022-11-03T10:08:50.715Z,58.56
2022-11-03T10:11:18.802Z,59.21
2022-11-03T10:13:50.143Z,59.01
2022-11-03T10:16:21.455Z,58.03
2022-11-03T10:18:50.089Z,58.25
2022-11-03T10:21:20.713Z,59.47
2022-11-03T10:23:50.967Z,57.52
2022-11-03T10:26:22.365Z,56.56
2022-11-03T10:29:01.284Z,55.23
2022-11-03T10:31:35.343Z,53.67
2022-11-03T10:34:03.558Z,51.59
2022-11-03T10:36:32.874Z,50.91
2022-11-03T10:39:26.096Z,49.06
2022-11-03T10:41:58.719Z,47.61
2022-11-03T10:44:29.042Z,47.55
2022-11-03T10:46:59.440Z,47.56
2022-11-03T10:49:29.190Z,47.85
2022-11-03T10:52:07.808Z,48.93
2022-11-03T10:54:38.048Z,49.41
2022-11-03T10:57:07.016Z,50.92
2022-11-03T10:59:38.788Z,50.09
2022-11-03T11:02:16.300Z,51.04
2022-11-03T11:04:44.210Z,51.52
2022-11-03T11:07:25.044Z,52.86
2022-11-03T11:09:54.774Z,54.77
2022-11-03T11:12:24.388Z,55.06
2022-11-03T11:15:07.027Z,55.83
2022-11-03T11:17:55.383Z,57.32
2022-11-03T11:20:44.012Z,58.58
2022-11-03T11:23:48.543Z,59.34
2022-11-03T11:29:44.190Z,61.09
2022-11-03T11:32:51.600Z,61.11
2022-11-03T11:36:01.089Z,62.27
2022-11-03T11:39:06.168Z,60.86
2022-11-03T11:42:16.789Z,61.44
2022-11-03T11:45:03.266Z,59.16
2022-11-03T11:47:51.178Z,58.19
2022-11-03T11:50:27.900Z,57.93
2022-11-03T11:53:02.430Z,57.92
2022-11-03T11:55:36.801Z,59.40
2022-11-03T11:58:07.805Z,58.96
2022-11-03T12:00:36.859Z,58.73
2022-11-03T12:03:07.627Z,58.43
2022-11-03T12:05:36.730Z,59.13
2022-11-03T12:08:18.658Z,59.34
2022-11-03T12:10:54.344Z,60.22
2022-11-03T12:13:43.712Z,61.36
2022-11-03T12:16:28.105Z,62.25
2022-11-03T12:18:56.502Z,62.73
2022-11-03T12:21:48.657Z,63.28
2022-11-03T12:24:37.448Z,63.86
2022-11-03T12:27:19.159Z,64.58
2022-11-03T12:29:47.424Z,64.79
2022-11-03T12:32:32.368Z,65.27
2022-11-03T12:35:02.612Z,66.13
2022-11-03T12:37:30.313Z,65.74
2022-11-03T12:39:58.408Z,66.17
2022-11-03T12:42:26.098Z,66.93
2022-11-03T12:44:54.157Z,67.30
2022-11-03T12:47:23.210Z,68.16
2022-11-03T12:49:50.898Z,68.38
2022-11-03T12:52:18.606Z,68.47
2022-11-03T12:54:46.792Z,69.00
2022-11-03T12:57:14.554Z,69.24
2022-11-03T12:59:42.269Z,69.76
2022-11-03T13:02:11.472Z,69.80
2022-11-03T13:04:41.435Z,69.68
2022-11-03T13:07:09.114Z,69.36
2022-11-03T13:09:37.358Z,69.71
2022-11-03T13:12:22.733Z,70.26
2022-11-03T13:14:50.702Z,70.55
2022-11-03T13:17:18.374Z,70.99
2022-11-03T13:19:49.358Z,70.97
2022-11-03T13:22:19.487Z,71.51
2022-11-03T13:24:47.686Z,71.94
2022-11-03T13:27:15.504Z,71.59
2022-11-03T13:29:43.502Z,71.45
2022-11-03T13:32:11.153Z,71.62
2022-11-03T13:34:39.201Z,72.07
2022-11-03T13:37:08.194Z,72.40
2022-11-03T13:39:36.249Z,73.09
2022-11-03T13:42:03.965Z,73.51
2022-11-03T13:44:32.005Z,74.31
2022-11-03T13:46:59.656Z,73.98
2022-11-03T13:52:16.709Z,74.50
2022-11-03T14:00:20.398Z,73.97
2022-11-03T14:05:36.361Z,74.75
2022-11-03T14:08:06.249Z,74.63
2022-11-03T14:10:34.454Z,74.70
2022-11-03T14:13:01.151Z,74.72
2022-11-03T14:15:29.750Z,74.85
2022-11-03T14:17:57.413Z,74.79
2022-11-03T14:20:25.333Z,74.71
2022-11-03T14:22:53.061Z,74.58
2022-11-03T14:25:22.380Z,75.02
2022-11-03T14:27:50.696Z,75.34
2022-11-03T14:30:18.968Z,75.51
2022-11-03T14:32:46.906Z,75.95
2022-11-03T14:35:14.949Z,75.93
2022-11-03T14:37:42.683Z,75.76
2022-11-03T14:40:32.640Z,76.01
2022-11-03T14:43:00.952Z,76.38
2022-11-03T14:45:29.445Z,76.81
2022-11-03T14:47:57.174Z,76.51
2022-11-03T14:50:25.189Z,76.57
2022-11-03T14:52:57.427Z,76.73
2022-11-03T14:55:28.617Z,76.98
2022-11-03T14:57:56.332Z,77.13
2022-11-03T15:00:26.328Z,77.71
2022-11-03T15:02:54.076Z,77.69
2022-11-03T15:05:35.979Z,77.96
2022-11-03T15:08:03.777Z,78.29
2022-11-03T15:10:32.171Z,78.55
2022-11-03T15:12:59.865Z,78.86
2022-11-03T15:15:29.274Z,78.70
2022-11-03T15:18:02.501Z,78.59
2022-11-03T15:20:31.793Z,79.04
2022-11-03T15:25:48.037Z,79.88
2022-11-03T15:28:15.743Z,79.87
2022-11-03T15:30:44.787Z,79.93
2022-11-03T15:35:42.029Z,80.35
2022-11-03T15:38:09.833Z,80.42
2022-11-03T15:40:38.054Z,80.74
2022-11-03T15:43:06.239Z,80.84
2022-11-03T15:45:34.358Z,80.86
2022-11-03T15:48:03.817Z,81.00
2022-11-03T15:50:32.112Z,81.37
2022-11-03T15:52:59.986Z,81.79
2022-11-03T15:55:28.504Z,81.50
2022-11-03T15:57:56.190Z,81.48
2022-11-03T16:00:24.180Z,81.60
2022-11-03T16:02:51.998Z,81.70
2022-11-03T16:05:25.164Z,82.14
2022-11-03T16:07:53.336Z,81.98
2022-11-03T16:10:20.998Z,81.86
2022-11-03T16:12:49.183Z,82.27
2022-11-03T16:15:17.096Z,82.09
2022-11-03T16:17:45.877Z,82.26
2022-11-03T16:20:13.907Z,82.85
2022-11-03T16:22:43.295Z,82.93
2022-11-03T16:25:13.437Z,83.33
2022-11-03T16:27:42.625Z,83.33
2022-11-03T16:30:12.576Z,83.66
2022-11-03T16:32:40.282Z,84.19
2022-11-03T16:35:09.295Z,84.39
2022-11-03T16:37:37.436Z,84.24
2022-11-03T16:40:07.924Z,84.42
2022-11-03T16:42:38.368Z,85.29
2022-11-03T16:45:08.419Z,85.20
2022-11-03T16:47:36.130Z,84.83
2022-11-03T16:50:04.267Z,85.01
2022-11-03T16:52:31.920Z,85.05
2022-11-03T16:54:59.591Z,85.06
2022-11-03T16:57:28.599Z,84.53
2022-11-03T16:59:56.360Z,84.55
2022-11-03T17:02:24.758Z,84.46
2022-11-03T17:04:52.505Z,84.55
2022-11-03T17:07:20.220Z,85.07
2022-11-03T17:09:47.919Z,85.58
2022-11-03T17:12:16.416Z,86.02
2022-11-03T17:14:45.670Z,85.66
2022-11-03T17:17:14.057Z,85.07
2022-11-03T17:19:41.810Z,85.12
2022-11-03T17:22:10.020Z,84.85
2022-11-03T17:24:37.689Z,84.82
2022-11-03T17:27:11.642Z,84.92
2022-11-03T17:29:43.039Z,85.35
2022-11-03T17:32:16.716Z,85.41
2022-11-03T17:34:44.655Z,85.58
2022-11-03T17:37:12.473Z,85.11
2022-11-03T17:39:41.380Z,84.95
2022-11-03T17:42:16.911Z,84.80
2022-11-03T17:44:45.731Z,84.83
2022-11-03T17:47:15.663Z,84.62
2022-11-03T17:49:44.137Z,84.44
2022-11-03T17:52:15.400Z,84.19
2022-11-03T17:54:43.444Z,84.00
2022-11-03T17:57:17.087Z,83.79
2022-11-03T17:59:47.251Z,83.64
2022-11-03T18:02:19.440Z,83.44
2022-11-03T18:04:48.138Z,83.08
2022-11-03T18:07:21.376Z,82.91
2022-11-03T18:09:49.693Z,82.84
2022-11-03T18:12:37.612Z,82.69
2022-11-03T18:15:08.079Z,82.30
2022-11-03T18:17:37.231Z,81.16
2022-11-03T18:20:15.329Z,81.79
2022-11-03T18:22:42.984Z,81.96
2022-11-03T18:25:14.694Z,82.21
2022-11-03T18:27:42.780Z,82.62
2022-11-03T18:30:12.444Z,84.45
2022-11-03T18:32:43.273Z,85.45
2022-11-03T18:35:16.977Z,85.63
2022-11-03T18:37:45.300Z,85.95
2022-11-03T18:40:14.698Z,85.64
2022-11-03T18:42:42.599Z,85.40
2022-11-03T18:45:13.066Z,85.20
2022-11-03T18:47:42.522Z,85.29
2022-11-03T18:50:15.748Z,85.12
2022-11-03T18:52:47.575Z,85.33
2022-11-03T18:55:17.242Z,85.18
2022-11-03T18:57:46.044Z,85.09
2022-11-03T19:00:20.351Z,85.21
2022-11-03T19:02:50.605Z,85.04
2022-11-03T19:05:20.171Z,85.23
2022-11-03T19:07:51.222Z,85.01
2022-11-03T19:10:22.240Z,85.10
2022-11-03T19:12:50.236Z,85.30
2022-11-03T19:15:20.380Z,85.48
2022-11-03T19:17:51.393Z,85.36
2022-11-03T19:20:20.025Z,85.65
2022-11-03T19:22:47.732Z,85.37
2022-11-03T19:25:15.832Z,85.78
2022-11-03T19:27:47.265Z,85.89
2022-11-03T19:30:19.808Z,85.54
2022-11-03T19:32:51.120Z,85.31
2022-11-03T19:35:21.833Z,85.57
2022-11-03T19:37:51.352Z,85.93
2022-11-03T19:40:20.885Z,86.02
2022-11-03T19:42:48.754Z,86.04
2022-11-03T19:45:19.036Z,85.78
2022-11-03T19:48:18.372Z,86.19
2022-11-03T19:50:41.829Z,86.14
2022-11-03T19:53:09.541Z,86.05
2022-11-03T19:55:41.627Z,85.85
2022-11-03T19:58:15.252Z,86.26
2022-11-03T20:00:43.158Z,85.93
2022-11-03T20:03:11.312Z,86.14
2022-11-03T20:05:46.417Z,86.10
2022-11-03T20:08:19.785Z,85.95
2022-11-03T20:10:48.155Z,86.51
2022-11-03T20:13:17.758Z,86.75
2022-11-03T20:15:45.793Z,86.60
2022-11-03T20:18:14.422Z,85.96
2022-11-03T20:20:45.295Z,86.04
2022-11-03T20:23:20.979Z,86.20
2022-11-03T20:25:49.049Z,86.32
2022-11-03T20:28:19.118Z,86.42
2022-11-03T20:30:46.850Z,86.41
2022-11-03T20:33:16.785Z,86.39
2022-11-03T20:35:48.337Z,86.17
2022-11-03T20:38:18.984Z,86.37
2022-11-03T20:40:49.358Z,86.06
2022-11-03T20:43:26.215Z,86.34
2022-11-03T20:45:54.519Z,86.00
2022-11-03T20:48:22.532Z,85.47
2022-11-03T20:50:51.960Z,85.46
2022-11-03T20:53:21.522Z,85.65
2022-11-03T20:55:49.504Z,85.95
2022-11-03T20:58:19.106Z,85.91
2022-11-03T21:00:48.272Z,85.63
2022-11-03T21:03:37.760Z,85.76
2022-11-03T21:06:12.317Z,85.87
2022-11-03T21:08:40.261Z,86.08
2022-11-03T21:11:27.235Z,86.24
2022-11-03T21:13:56.884Z,86.36
2022-11-03T21:16:42.252Z,86.18
2022-11-03T21:19:34.005Z,86.28
2022-11-03T21:22:03.682Z,86.05
2022-11-03T21:24:31.296Z,86.32
2022-11-03T21:26:59.277Z,86.20
2022-11-03T21:29:53.308Z,86.14
2022-11-03T21:32:16.921Z,86.35
2022-11-03T21:34:45.396Z,85.86
2022-11-03T21:37:15.952Z,85.72
2022-11-03T21:39:44.055Z,86.27
2022-11-03T21:42:30.040Z,86.30
2022-11-03T21:44:58.972Z,85.87
2022-11-03T21:47:27.133Z,85.71
2022-11-03T21:49:53.852Z,86.04
2022-11-03T21:52:31.840Z,86.20
2022-11-03T21:55:00.288Z,87.48
2022-11-03T21:57:29.413Z,88.29
2022-11-03T21:59:58.868Z,87.95
2022-11-03T22:02:29.892Z,87.72
2022-11-03T22:04:57.804Z,87.54
2022-11-03T22:07:27.159Z,87.76
2022-11-03T22:09:54.839Z,87.99
2022-11-03T22:12:23.368Z,87.88
2022-11-03T22:15:08.852Z,87.84
2022-11-03T22:17:36.918Z,88.76
2022-11-03T22:20:22.676Z,89.15
2022-11-03T22:23:09.001Z,89.01
2022-11-03T22:25:54.603Z,89.47
2022-11-03T22:28:22.601Z,89.88
2022-11-03T22:31:08.125Z,90.53
2022-11-03T22:33:56.132Z,90.52
2022-11-03T22:36:25.484Z,88.91
2022-11-03T22:39:14.419Z,88.03
2022-11-03T22:42:04.949Z,88.46
2022-11-03T22:44:51.505Z,88.36
2022-11-03T22:47:19.196Z,88.96
2022-11-03T22:49:46.889Z,88.52
2022-11-03T22:52:14.573Z,87.97
2022-11-03T22:54:42.621Z,88.04
2022-11-03T22:57:11.281Z,88.00
2022-11-03T22:59:38.945Z,88.04
2022-11-03T23:02:06.958Z,88.52
2022-11-03T23:04:35.120Z,88.91
2022-11-03T23:07:02.933Z,88.79
2022-11-03T23:09:30.758Z,88.67
2022-11-03T23:12:00.075Z,88.49
2022-11-03T23:14:48.598Z,87.10
2022-11-03T23:17:16.344Z,88.76
2022-11-03T23:20:01.716Z,88.16
2022-11-03T23:22:29.654Z,88.27
2022-11-03T23:24:59.103Z,87.92
2022-11-03T23:27:28.359Z,87.50
2022-11-03T23:29:56.019Z,87.65
2022-11-03T23:32:23.768Z,87.18
2022-11-03T23:34:51.501Z,87.57
2022-11-03T23:37:19.131Z,86.99
2022-11-03T23:39:46.765Z,86.71
2022-11-03T23:42:14.734Z,85.71
2022-11-03T23:45:01.184Z,86.12
2022-11-03T23:47:46.775Z,85.34
2022-11-03T23:50:14.819Z,85.14
2022-11-03T23:52:42.969Z,85.38
2022-11-03T23:55:10.705Z,85.10
2022-11-03T23:57:56.387Z,85.68
